createdAt,value
2019-02-07T00:01:16.683Z,1.50
2019-02-07T00:03:49.121Z,1.40
2019-02-07T00:06:22.184Z,1.40
2019-02-07T00:08:54.902Z,1.30
2019-02-07T00:11:26.803Z,1.30
2019-02-07T00:13:59.522Z,1.20
2019-02-07T00:16:32.202Z,1.20
2019-02-07T00:19:04.921Z,1.30
2019-02-07T00:21:37.462Z,1.30
2019-02-07T00:24:10.963Z,1.30
2019-02-07T00:26:44.725Z,1.30
2019-02-07T00:29:17.343Z,1.30
2019-02-07T00:31:50.722Z,1.40
2019-02-07T00:34:23.301Z,1.40
2019-02-07T00:36:55.982Z,1.50
2019-02-07T00:39:28.482Z,1.40
2019-02-07T00:42:01.542Z,1.40
2019-02-07T00:44:33.681Z,1.40
2019-02-07T00:47:07.106Z,1.40
2019-02-07T00:49:40.002Z,1.40
2019-02-07T00:52:13.122Z,1.40
2019-02-07T00:54:46.401Z,1.30
2019-02-07T00:57:18.462Z,1.20
2019-02-07T00:59:51.143Z,1.20
2019-02-07T01:02:24.282Z,1.20
2019-02-07T01:04:56.761Z,1.20
2019-02-07T01:07:29.303Z,1.10
2019-02-07T01:10:02.262Z,1.10
2019-02-07T01:12:35.063Z,1.00
2019-02-07T01:15:08.624Z,1.00
2019-02-07T01:17:42.480Z,1.00
2019-02-07T01:20:17.244Z,1.00
2019-02-07T01:22:50.483Z,1.10
2019-02-07T01:25:24.003Z,1.00
2019-02-07T01:27:57.304Z,0.90
2019-02-07T01:30:30.764Z,0.80
2019-02-07T01:33:04.083Z,0.70
2019-02-07T01:35:37.713Z,0.70
2019-02-07T01:38:10.783Z,0.60
2019-02-07T01:40:44.125Z,0.60
2019-02-07T01:43:16.604Z,0.60
2019-02-07T01:45:50.061Z,0.50
2019-02-07T01:48:23.443Z,0.50
2019-02-07T01:50:57.204Z,0.40
2019-02-07T01:53:30.003Z,0.40
2019-02-07T01:56:03.183Z,0.40
2019-02-07T01:58:36.783Z,0.30
2019-02-07T02:01:10.625Z,0.30
2019-02-07T02:03:43.102Z,0.40
2019-02-07T02:06:16.203Z,0.20
2019-02-07T02:08:49.122Z,0.20
2019-02-07T02:11:21.984Z,0.30
2019-02-07T02:13:54.522Z,0.30
2019-02-07T02:16:27.007Z,0.30
2019-02-07T02:18:59.501Z,0.40
2019-02-07T02:21:33.061Z,0.50
2019-02-07T02:24:06.645Z,0.50
2019-02-07T02:26:39.022Z,0.60
2019-02-07T02:29:11.102Z,0.60
2019-02-07T02:31:44.623Z,0.60
2019-02-07T02:34:18.523Z,0.60
2019-02-07T02:36:51.323Z,0.60
2019-02-07T02:39:24.953Z,0.50
2019-02-07T02:41:57.742Z,0.50
2019-02-07T02:44:30.604Z,0.40
2019-02-07T02:47:03.441Z,0.30
2019-02-07T02:49:36.944Z,0.40
2019-02-07T02:52:09.862Z,0.30
2019-02-07T02:54:45.743Z,0.30
2019-02-07T02:57:18.721Z,0.20
2019-02-07T02:59:52.125Z,0.10
2019-02-07T03:02:36.044Z,0.10
2019-02-07T03:05:27.304Z,0.00
2019-02-07T03:08:28.022Z,0.10
2019-02-07T03:11:22.888Z,-0.10
2019-02-07T03:14:24.383Z,-0.10
2019-02-07T03:17:12.844Z,-0.20
2019-02-07T03:20:01.782Z,-0.20
2019-02-07T03:22:52.067Z,-0.20
2019-02-07T03:25:52.824Z,-0.20
2019-02-07T03:28:44.567Z,-0.10
2019-02-07T03:31:34.551Z,-0.10
2019-02-07T03:34:28.103Z,-0.20
2019-02-07T03:37:27.290Z,-0.20
2019-02-07T03:40:33.684Z,-0.20
2019-02-07T03:43:24.724Z,-0.30
2019-02-07T03:46:14.182Z,-0.30
2019-02-07T03:49:05.222Z,-0.40
2019-02-07T03:52:01.802Z,-0.40
2019-02-07T03:54:58.992Z,-0.30
2019-02-07T03:57:48.941Z,-0.30
2019-02-07T04:00:34.782Z,-0.20
2019-02-07T04:03:31.742Z,-0.10
2019-02-07T04:06:28.922Z,-0.10
2019-02-07T04:09:33.002Z,-0.10
2019-02-07T04:12:14.022Z,-0.10
2019-02-07T04:15:13.762Z,-0.10
2019-02-07T04:18:03.162Z,-0.10
2019-02-07T04:20:53.002Z,-0.10
2019-02-07T04:23:44.727Z,-0.20
2019-02-07T04:26:36.204Z,-0.10
2019-02-07T04:29:27.723Z,-0.20
2019-02-07T04:32:17.705Z,-0.20
2019-02-07T04:35:11.787Z,-0.20
2019-02-07T04:38:02.552Z,-0.20
2019-02-07T04:40:59.182Z,-0.10
2019-02-07T04:43:50.723Z,-0.10
2019-02-07T04:46:44.808Z,-0.10
2019-02-07T04:49:39.404Z,-0.10
2019-02-07T04:52:29.962Z,-0.10
2019-02-07T04:55:27.302Z,-0.20
2019-02-07T04:58:09.082Z,-0.30
2019-02-07T05:01:02.642Z,-0.40
2019-02-07T05:04:00.582Z,-0.30
2019-02-07T05:06:44.416Z,-0.40
2019-02-07T05:09:33.926Z,-0.30
2019-02-07T05:12:31.603Z,-0.30
2019-02-07T05:15:35.365Z,-0.30
2019-02-07T05:18:36.362Z,-0.40
2019-02-07T05:21:29.923Z,-0.40
2019-02-07T05:24:19.721Z,-0.30
2019-02-07T05:27:08.622Z,-0.20
2019-02-07T05:30:09.362Z,-0.20
2019-02-07T05:33:09.587Z,-0.40
2019-02-07T05:36:01.621Z,-0.40
2019-02-07T05:38:48.524Z,-0.40
2019-02-07T05:41:30.503Z,-0.30
2019-02-07T05:44:19.322Z,-0.30
2019-02-07T05:47:10.042Z,-0.30
2019-02-07T05:50:00.303Z,-0.30
2019-02-07T05:52:41.565Z,-0.20
2019-02-07T05:55:31.565Z,-0.20
2019-02-07T05:58:17.275Z,-0.30
2019-02-07T06:01:12.522Z,-0.30
2019-02-07T06:04:03.742Z,-0.30
2019-02-07T06:06:54.003Z,-0.30
2019-02-07T06:09:49.022Z,-0.30
2019-02-07T06:12:46.802Z,-0.20
2019-02-07T06:15:37.062Z,-0.10
2019-02-07T06:18:45.723Z,0.00
2019-02-07T06:21:36.183Z,0.00
2019-02-07T06:24:25.963Z,0.00
2019-02-07T06:27:16.203Z,0.10
2019-02-07T06:30:07.202Z,0.10
2019-02-07T06:33:01.063Z,0.20
2019-02-07T06:35:58.182Z,0.20
2019-02-07T06:39:01.004Z,0.20
2019-02-07T06:41:51.242Z,0.20
2019-02-07T06:44:41.204Z,0.10
2019-02-07T06:47:38.622Z,0.10
2019-02-07T06:50:37.603Z,0.10
2019-02-07T06:53:34.462Z,0.10
2019-02-07T06:56:24.203Z,0.10
2019-02-07T06:59:21.544Z,0.10
2019-02-07T07:02:28.462Z,0.10
2019-02-07T07:05:22.602Z,0.20
2019-02-07T07:08:13.303Z,0.30
2019-02-07T07:11:07.402Z,0.40
2019-02-07T07:14:07.122Z,0.50
2019-02-07T07:17:06.704Z,0.60
2019-02-07T07:19:56.283Z,0.50
2019-02-07T07:22:59.082Z,0.60
2019-02-07T07:25:45.803Z,0.70
2019-02-07T07:28:31.662Z,0.70
2019-02-07T07:31:34.922Z,0.70
2019-02-07T07:34:25.427Z,0.70
2019-02-07T07:37:19.566Z,0.70
2019-02-07T07:40:09.483Z,0.70
2019-02-07T07:42:59.486Z,0.60
2019-02-07T07:45:49.987Z,0.50
2019-02-07T07:48:44.030Z,0.50
2019-02-07T07:51:41.462Z,0.40
2019-02-07T07:54:31.443Z,0.40
2019-02-07T07:57:21.803Z,0.50
2019-02-07T08:00:12.183Z,0.50
2019-02-07T08:03:01.403Z,0.60
2019-02-07T08:05:55.184Z,0.80
2019-02-07T08:08:43.807Z,0.80
2019-02-07T08:11:31.406Z,0.70
2019-02-07T08:14:12.387Z,0.60
2019-02-07T08:16:53.147Z,0.60
2019-02-07T08:20:00.024Z,0.60
2019-02-07T08:22:33.628Z,0.70
2019-02-07T08:25:31.797Z,0.60
2019-02-07T08:28:23.339Z,0.80
2019-02-07T08:31:17.417Z,0.80
2019-02-07T08:34:24.040Z,0.70
2019-02-07T08:37:15.343Z,0.70
2019-02-07T08:40:06.107Z,0.70
2019-02-07T08:42:56.881Z,0.70
2019-02-07T08:45:51.140Z,0.80
2019-02-07T08:48:51.401Z,0.90
2019-02-07T08:51:42.906Z,0.90
2019-02-07T08:54:31.608Z,0.90
2019-02-07T08:57:20.842Z,1.00
2019-02-07T09:00:16.174Z,1.00
2019-02-07T09:03:05.196Z,1.00
2019-02-07T09:05:59.777Z,1.10
2019-02-07T09:09:00.737Z,1.10
2019-02-07T09:11:50.198Z,1.20
2019-02-07T09:14:53.240Z,1.20
2019-02-07T09:17:44.521Z,1.40
2019-02-07T09:20:40.920Z,1.40
2019-02-07T09:23:46.999Z,1.60
2019-02-07T09:26:41.633Z,1.70
2019-02-07T09:29:37.981Z,1.70
2019-02-07T09:32:40.283Z,1.80
2019-02-07T09:35:30.262Z,1.90
2019-02-07T09:38:27.421Z,2.20
2019-02-07T09:41:24.582Z,2.30
2019-02-07T09:44:27.372Z,2.40
2019-02-07T09:47:16.572Z,2.40
2019-02-07T09:50:06.292Z,2.40
2019-02-07T09:53:23.732Z,2.40
2019-02-07T09:56:08.824Z,2.50
2019-02-07T09:58:57.805Z,2.60
2019-02-07T10:01:38.827Z,2.80
2019-02-07T10:04:32.847Z,2.80
2019-02-07T10:07:38.745Z,2.80
2019-02-07T10:10:28.447Z,2.80
2019-02-07T10:13:19.744Z,2.80
2019-02-07T10:16:02.794Z,2.80
2019-02-07T10:19:05.831Z,2.80
2019-02-07T10:22:02.516Z,2.70
2019-02-07T10:24:51.669Z,2.70
2019-02-07T10:27:41.213Z,2.80
2019-02-07T10:30:36.006Z,2.90
2019-02-07T10:33:27.267Z,2.80
2019-02-07T10:36:16.484Z,2.70
2019-02-07T10:39:06.484Z,2.80
2019-02-07T10:41:47.268Z,2.90
2019-02-07T10:44:35.448Z,3.00
2019-02-07T10:47:25.164Z,3.00
2019-02-07T10:50:14.905Z,3.10
2019-02-07T10:53:00.546Z,3.10
2019-02-07T10:55:57.167Z,3.10
2019-02-07T10:58:48.172Z,3.10
2019-02-07T11:01:39.181Z,3.30
2019-02-07T11:04:33.526Z,3.40
2019-02-07T11:07:24.553Z,3.50
2019-02-07T11:10:13.490Z,3.60
2019-02-07T11:13:09.955Z,3.70
2019-02-07T11:16:01.210Z,3.80
2019-02-07T11:18:55.328Z,3.80
2019-02-07T11:21:38.302Z,3.90
2019-02-07T11:24:32.190Z,3.90
2019-02-07T11:27:37.991Z,4.00
2019-02-07T11:30:48.209Z,4.00
2019-02-07T11:33:45.631Z,4.00
2019-02-07T11:36:35.610Z,4.00
2019-02-07T11:39:29.784Z,4.00
2019-02-07T11:42:21.454Z,4.00
2019-02-07T11:45:11.969Z,4.10
2019-02-07T11:48:12.209Z,4.00
2019-02-07T11:50:55.510Z,4.10
2019-02-07T11:53:48.847Z,4.00
2019-02-07T11:56:43.131Z,4.10
2019-02-07T11:59:32.661Z,4.20
2019-02-07T12:02:23.650Z,4.10
2019-02-07T12:05:17.205Z,4.10
2019-02-07T12:08:13.090Z,4.20
2019-02-07T12:10:56.670Z,4.20
2019-02-07T12:13:50.529Z,4.10
2019-02-07T12:16:45.089Z,4.10
2019-02-07T12:19:48.868Z,4.10
2019-02-07T12:22:49.894Z,4.10
2019-02-07T12:25:39.896Z,4.10
2019-02-07T12:28:42.132Z,4.10
2019-02-07T12:31:26.509Z,4.20
2019-02-07T12:34:04.765Z,4.10
2019-02-07T12:36:55.989Z,4.10
2019-02-07T12:39:45.210Z,4.10
2019-02-07T12:42:44.661Z,4.10
2019-02-07T12:45:53.588Z,4.00
2019-02-07T12:49:00.010Z,4.10
2019-02-07T12:51:48.673Z,4.10
2019-02-07T12:54:38.413Z,4.00
2019-02-07T12:57:28.898Z,4.00
2019-02-07T13:00:15.061Z,4.00
2019-02-07T13:03:06.293Z,4.10
2019-02-07T13:05:52.701Z,4.10
2019-02-07T13:08:56.002Z,4.10
2019-02-07T13:11:46.542Z,4.10
2019-02-07T13:14:27.079Z,4.00
2019-02-07T13:17:09.686Z,4.00
2019-02-07T13:19:58.525Z,4.00
2019-02-07T13:22:53.168Z,4.10
2019-02-07T13:25:46.982Z,4.10
2019-02-07T13:28:34.870Z,4.20
2019-02-07T13:31:37.712Z,4.20
2019-02-07T13:34:27.665Z,4.20
2019-02-07T13:37:24.882Z,4.20
2019-02-07T13:40:33.793Z,4.30
2019-02-07T13:43:23.214Z,4.20
2019-02-07T13:46:12.674Z,4.10
2019-02-07T13:49:03.973Z,4.20
2019-02-07T13:51:57.523Z,4.30
2019-02-07T13:54:51.341Z,4.40
2019-02-07T13:57:54.686Z,4.50
2019-02-07T14:00:37.981Z,4.50
2019-02-07T14:03:28.980Z,4.40
2019-02-07T14:06:35.620Z,4.40
2019-02-07T14:09:35.060Z,4.40
2019-02-07T14:12:32.981Z,4.40
2019-02-07T14:15:17.341Z,4.40
2019-02-07T14:18:01.441Z,4.50
2019-02-07T14:21:04.243Z,4.50
2019-02-07T14:24:10.120Z,4.50
2019-02-07T14:26:59.820Z,4.50
2019-02-07T14:29:52.381Z,4.50
2019-02-07T14:32:45.179Z,4.40
2019-02-07T14:35:36.422Z,4.40
2019-02-07T14:38:43.040Z,4.30
2019-02-07T14:41:42.820Z,4.40
2019-02-07T14:44:38.880Z,4.40
2019-02-07T14:47:11.021Z,4.50
2019-02-07T14:49:44.281Z,4.60
2019-02-07T14:52:17.624Z,4.60
2019-02-07T14:54:50.741Z,4.70
2019-02-07T14:57:23.321Z,4.60
2019-02-07T14:59:55.645Z,4.70
2019-02-07T15:02:28.160Z,4.70
2019-02-07T15:05:01.582Z,4.60
2019-02-07T15:07:33.400Z,4.60
2019-02-07T15:10:06.540Z,4.70
2019-02-07T15:12:39.580Z,4.70
2019-02-07T15:15:12.666Z,4.70
2019-02-07T15:17:45.479Z,4.70
2019-02-07T15:20:25.753Z,4.70
2019-02-07T15:22:52.459Z,4.70
2019-02-07T15:25:25.419Z,4.90
2019-02-07T15:27:58.659Z,4.90
2019-02-07T15:30:31.219Z,4.70
2019-02-07T15:33:03.394Z,4.70
2019-02-07T15:35:37.876Z,4.70
2019-02-07T15:38:10.542Z,4.70
2019-02-07T15:40:43.326Z,4.70
2019-02-07T15:43:15.155Z,4.60
2019-02-07T15:45:47.870Z,4.60
2019-02-07T15:48:20.855Z,4.60
2019-02-07T15:50:54.092Z,4.50
2019-02-07T15:53:26.587Z,4.50
2019-02-07T15:55:59.655Z,4.40
2019-02-07T15:58:48.506Z,4.30
2019-02-07T16:01:29.509Z,4.20
2019-02-07T16:04:12.446Z,4.20
2019-02-07T16:06:44.789Z,4.10
2019-02-07T16:09:18.547Z,4.10
2019-02-07T16:11:51.878Z,4.10
2019-02-07T16:14:24.427Z,4.20
2019-02-07T16:16:56.931Z,4.30
2019-02-07T16:19:29.567Z,4.30
2019-02-07T16:22:02.008Z,4.60
2019-02-07T16:24:34.767Z,4.60
2019-02-07T16:27:07.828Z,4.60
2019-02-07T16:29:41.889Z,4.50
2019-02-07T16:32:14.837Z,4.50
2019-02-07T16:34:47.978Z,4.50
2019-02-07T16:37:20.656Z,4.50
2019-02-07T16:39:53.641Z,4.60
2019-02-07T16:42:26.325Z,4.50
2019-02-07T16:44:58.698Z,4.50
2019-02-07T16:47:32.179Z,4.40
2019-02-07T16:50:05.099Z,4.40
2019-02-07T16:52:37.654Z,4.40
2019-02-07T16:55:11.571Z,4.40
2019-02-07T16:57:43.801Z,4.50
2019-02-07T17:00:22.094Z,4.40
2019-02-07T17:02:54.661Z,4.30
2019-02-07T17:05:27.454Z,4.40
2019-02-07T17:07:59.571Z,4.40
2019-02-07T17:10:36.250Z,4.30
2019-02-07T17:13:11.451Z,4.30
2019-02-07T17:15:43.876Z,4.30
2019-02-07T17:18:15.724Z,4.30
2019-02-07T17:20:47.418Z,4.40
2019-02-07T17:23:22.056Z,4.40
2019-02-07T17:25:55.335Z,4.50
2019-02-07T17:28:27.062Z,4.40
2019-02-07T17:30:59.435Z,4.40
2019-02-07T17:33:31.966Z,4.50
2019-02-07T17:36:04.090Z,4.50
2019-02-07T17:38:36.796Z,4.60
2019-02-07T17:41:09.964Z,4.70
2019-02-07T17:43:42.819Z,4.70
2019-02-07T17:46:15.997Z,4.60
2019-02-07T17:48:49.279Z,4.60
2019-02-07T17:51:23.635Z,4.60
2019-02-07T17:53:55.991Z,4.70
2019-02-07T17:56:28.260Z,4.70
2019-02-07T17:59:01.327Z,4.60
2019-02-07T18:01:34.129Z,4.60
2019-02-07T18:04:06.509Z,4.60
2019-02-07T18:06:38.542Z,4.60
2019-02-07T18:09:12.400Z,4.60
2019-02-07T18:11:44.480Z,4.60
2019-02-07T18:14:17.840Z,4.70
2019-02-07T18:16:50.605Z,4.60
2019-02-07T18:19:23.722Z,4.60
2019-02-07T18:21:57.446Z,4.70
2019-02-07T18:24:29.932Z,4.60
2019-02-07T18:27:06.468Z,4.70
2019-02-07T18:29:40.302Z,4.80
2019-02-07T18:32:12.908Z,4.80
2019-02-07T18:34:45.284Z,4.70
2019-02-07T18:37:19.821Z,4.70
2019-02-07T18:39:52.083Z,4.80
2019-02-07T18:42:24.136Z,4.90
2019-02-07T18:44:56.382Z,5.00
2019-02-07T18:47:30.302Z,5.00
2019-02-07T18:50:03.643Z,5.00
2019-02-07T18:52:37.283Z,5.10
2019-02-07T18:55:10.315Z,5.10
2019-02-07T18:57:42.870Z,5.10
2019-02-07T19:00:19.173Z,5.10
2019-02-07T19:02:51.121Z,5.20
2019-02-07T19:05:23.404Z,5.20
2019-02-07T19:07:57.860Z,5.30
2019-02-07T19:10:30.156Z,5.30
2019-02-07T19:13:02.969Z,5.40
2019-02-07T19:15:41.457Z,5.40
2019-02-07T19:18:14.537Z,5.50
2019-02-07T19:20:47.610Z,5.50
2019-02-07T19:23:20.089Z,5.50
2019-02-07T19:25:52.611Z,5.50
2019-02-07T19:28:25.431Z,5.50
2019-02-07T19:30:57.869Z,5.60
2019-02-07T19:33:31.289Z,5.60
2019-02-07T19:36:04.872Z,5.50
2019-02-07T19:38:37.068Z,5.50
2019-02-07T19:41:09.989Z,5.50
2019-02-07T19:43:45.322Z,5.50
2019-02-07T19:46:17.250Z,5.40
2019-02-07T19:48:51.150Z,5.30
2019-02-07T19:51:25.010Z,5.20
2019-02-07T19:53:58.310Z,5.10
2019-02-07T19:56:32.173Z,5.10
2019-02-07T19:59:05.730Z,5.10
2019-02-07T20:01:37.311Z,5.10
2019-02-07T20:04:10.429Z,5.10
2019-02-07T20:06:42.990Z,5.10
2019-02-07T20:09:16.811Z,5.10
2019-02-07T20:11:49.150Z,5.10
2019-02-07T20:14:21.565Z,5.10
2019-02-07T20:16:54.610Z,5.10
2019-02-07T20:19:28.149Z,5.20
2019-02-07T20:22:00.409Z,5.20
2019-02-07T20:24:45.416Z,5.10
2019-02-07T20:27:08.210Z,5.10
2019-02-07T20:29:40.810Z,5.10
2019-02-07T20:32:14.169Z,5.00
2019-02-07T20:34:47.490Z,5.10
2019-02-07T20:37:20.830Z,5.10
2019-02-07T20:39:53.910Z,5.10
2019-02-07T20:42:26.809Z,5.10
2019-02-07T20:44:59.611Z,5.20
2019-02-07T20:47:32.889Z,5.10
2019-02-07T20:50:06.969Z,5.20
2019-02-07T20:52:40.388Z,5.20
2019-02-07T20:55:13.708Z,5.20
2019-02-07T20:57:45.889Z,5.20
2019-02-07T21:00:23.809Z,5.30
2019-02-07T21:02:56.869Z,5.20
2019-02-07T21:05:31.270Z,5.20
2019-02-07T21:08:04.030Z,5.20
2019-02-07T21:10:37.649Z,5.20
2019-02-07T21:13:11.230Z,5.30
2019-02-07T21:15:43.708Z,5.30
2019-02-07T21:18:16.629Z,5.40
2019-02-07T21:20:49.228Z,5.40
2019-02-07T21:23:21.950Z,5.40
2019-02-07T21:25:55.548Z,5.50
2019-02-07T21:28:27.949Z,5.60
2019-02-07T21:31:00.569Z,5.60
2019-02-07T21:33:33.588Z,5.60
2019-02-07T21:36:06.288Z,5.60
2019-02-07T21:38:39.688Z,5.60
2019-02-07T21:41:12.929Z,5.60
2019-02-07T21:43:45.728Z,5.70
2019-02-07T21:46:18.223Z,5.70
2019-02-07T21:48:51.205Z,5.70
2019-02-07T21:51:24.542Z,5.70
2019-02-07T21:53:57.641Z,5.70
2019-02-07T21:56:29.241Z,5.70
2019-02-07T21:59:02.102Z,5.70
2019-02-07T22:01:34.821Z,5.70
2019-02-07T22:04:06.803Z,5.70
2019-02-07T22:06:39.561Z,5.70
2019-02-07T22:09:14.742Z,5.80
2019-02-07T22:11:47.063Z,5.70
2019-02-07T22:14:19.742Z,5.70
2019-02-07T22:16:52.581Z,5.70
2019-02-07T22:19:25.122Z,5.70
2019-02-07T22:21:57.782Z,5.80
2019-02-07T22:24:30.046Z,5.80
2019-02-07T22:27:03.142Z,5.70
2019-02-07T22:29:35.365Z,5.80
2019-02-07T22:32:07.823Z,5.70
2019-02-07T22:34:40.623Z,5.70
2019-02-07T22:37:13.081Z,5.80
2019-02-07T22:39:45.283Z,5.80
2019-02-07T22:42:18.602Z,5.80
2019-02-07T22:44:51.686Z,5.70
2019-02-07T22:47:24.043Z,5.70
2019-02-07T22:49:56.824Z,5.70
2019-02-07T22:52:29.961Z,5.70
2019-02-07T22:55:02.983Z,5.70
2019-02-07T22:57:35.102Z,5.70
2019-02-07T23:00:27.402Z,5.70
2019-02-07T23:03:00.842Z,5.70
2019-02-07T23:05:33.861Z,5.60
2019-02-07T23:08:06.925Z,5.60
2019-02-07T23:10:39.342Z,5.60
2019-02-07T23:13:11.002Z,5.60
2019-02-07T23:15:44.101Z,5.60
2019-02-07T23:18:15.742Z,5.60
2019-02-07T23:20:48.651Z,5.70
2019-02-07T23:23:21.872Z,5.60
2019-02-07T23:25:54.225Z,5.60
2019-02-07T23:28:27.122Z,5.60
2019-02-07T23:30:59.923Z,5.60
2019-02-07T23:33:32.662Z,5.60
2019-02-07T23:36:05.781Z,5.60
2019-02-07T23:38:37.962Z,5.60
2019-02-07T23:41:11.726Z,5.50
2019-02-07T23:43:46.105Z,5.50
2019-02-07T23:46:18.962Z,5.50
2019-02-07T23:48:51.824Z,5.40
2019-02-07T23:51:24.781Z,5.40
2019-02-07T23:53:57.251Z,5.30
2019-02-07T23:56:29.842Z,5.30
2019-02-07T23:59:02.707Z,5.40
